Presho, South Dakota
Current Conditions -  °F | °C
As of 5:53 PM on Monday 24 Nov 2014 (Local Time) from KPIR Reporting Station
Clear Clear  
Wind Chill: 14°   Ceiling: Unl
Heat Index: 24°   Visibility: 10mi
Dew Point: 10°   Wind: 10mph
Humidity: 55%   Direction: 320°NW
Pressure: 30.02"   Gusts: NA
Location:  43.91°N, 100.06°W
Report Text: KPIR 242353Z AUTO 32009KT 10SM CLR M04/M12 A3002 RMK AO2 SLP192 T10441122 11011 21050 51025
Loading
Personal Weather Stations






























Interactive Weather Map New forecast layout! Learn more

10-Day Weather Forecast

Advertisements
Track Severe Weather on mobile